Time;durP1;ratioP1;P1;durP2;ratioP2;P2;SDS_P1;SDS_P2;PMS_P1;PMS_P2;Temp;Humidity;BMP_temperature;BMP_pressure;BME280_temperature;BME280_humidity;BME280_pressure;Samples;Min_cycle;Max_cycle;Signal;HPM_P1;HPM_P2
2022/06/15 00:01:19;;;;;;;5.32;1.90;;;11.60;67.60;;;;;;4951326;29;20132;-75
2022/06/15 00:03:48;;;;;;;7.15;1.80;;;11.60;67.80;;;;;;4941359;29;20482;-75
2022/06/15 00:06:20;;;;;;;7.80;1.75;;;11.40;67.90;;;;;;4951098;29;20050;-75
2022/06/15 00:08:51;;;;;;;6.07;2.30;;;11.30;68.20;;;;;;4964014;28;20044;-75
2022/06/15 00:11:28;;;;;;;9.73;2.85;;;11.30;68.40;;;;;;4953562;29;20055;-75
2022/06/15 00:13:58;;;;;;;9.40;3.15;;;11.20;68.70;;;;;;4941827;29;20055;-75
2022/06/15 00:16:27;;;;;;;11.52;3.08;;;11.10;69.10;;;;;;4948581;29;20050;-75
2022/06/15 00:18:54;;;;;;;7.75;2.58;;;11.10;69.60;;;;;;4954074;29;20066;-76
2022/06/15 00:21:22;;;;;;;8.38;2.50;;;11.00;70.00;;;;;;4954190;29;20489;-75
2022/06/15 00:23:51;;;;;;;8.57;2.40;;;10.90;70.30;;;;;;4953976;29;20039;-76
2022/06/15 00:26:18;;;;;;;10.98;3.40;;;10.80;70.70;;;;;;4952307;28;20050;-74
2022/06/15 00:28:46;;;;;;;9.77;2.70;;;10.70;71.10;;;;;;4952793;29;20047;-76
2022/06/15 00:31:14;;;;;;;6.95;2.42;;;10.70;71.60;;;;;;4936787;29;20059;-76
2022/06/15 00:33:42;;;;;;;4.78;2.45;;;10.60;71.90;;;;;;4952674;29;20043;-75
2022/06/15 00:36:13;;;;;;;8.40;2.53;;;10.50;72.20;;;;;;4946567;29;20050;-75
2022/06/15 00:38:48;;;;;;;8.20;2.40;;;10.50;72.60;;;;;;4953702;29;20043;-75
2022/06/15 00:41:20;;;;;;;7.97;2.75;;;10.40;73.00;;;;;;4950192;29;20043;-75
2022/06/15 00:43:55;;;;;;;8.23;2.90;;;10.30;73.10;;;;;;4945499;29;20043;-75
2022/06/15 00:46:32;;;;;;;7.80;2.92;;;10.30;73.30;;;;;;4951257;29;20047;-75
2022/06/15 00:49:20;;;;;;;7.90;2.78;;;10.20;73.50;;;;;;4951739;29;20039;-73
2022/06/15 00:51:53;;;;;;;5.50;2.60;;;10.20;73.60;;;;;;4945945;29;20054;-76
2022/06/15 00:54:22;;;;;;;12.77;2.85;;;10.10;73.90;;;;;;4952778;29;20059;-75
2022/06/15 00:56:51;;;;;;;8.80;3.00;;;10.00;74.10;;;;;;4952457;29;20044;-75
2022/06/15 00:59:24;;;;;;;5.25;2.70;;;10.00;74.30;;;;;;4961576;29;20047;-75
2022/06/15 01:01:52;;;;;;;6.78;2.53;;;10.00;74.60;;;;;;4957621;28;20059;-75
2022/06/15 01:04:21;;;;;;;10.75;3.20;;;10.00;74.60;;;;;;4964217;29;20408;-75
2022/06/15 01:06:51;;;;;;;7.85;3.10;;;9.90;74.80;;;;;;4957614;29;20051;-74
2022/06/15 01:09:20;;;;;;;8.85;3.58;;;9.90;74.90;;;;;;4958882;29;20429;-75
2022/06/15 01:12:39;;;;;;;8.30;3.80;;;9.80;75.20;;;;;;4955571;29;20039;-75
2022/06/15 01:15:15;;;;;;;12.25;3.55;;;9.80;75.70;;;;;;4928228;29;20055;-74
2022/06/15 01:18:20;;;;;;;22.55;5.40;;;9.70;75.60;;;;;;4966455;29;20055;-75
2022/06/15 01:21:06;;;;;;;25.48;7.15;;;9.70;76.10;;;;;;4959727;29;20051;-75
2022/06/15 01:23:39;;;;;;;32.42;6.40;;;9.70;76.30;;;;;;4946325;29;20055;-75
2022/06/15 01:26:10;;;;;;;22.67;5.90;;;9.70;76.30;;;;;;4955029;29;20042;-75
2022/06/15 01:28:40;;;;;;;23.52;6.85;;;9.70;76.60;;;;;;4957101;28;20059;-75
2022/06/15 01:31:18;;;;;;;21.08;6.18;;;9.60;76.70;;;;;;4955739;29;20048;-75
2022/06/15 01:34:12;;;;;;;17.98;5.32;;;9.60;77.00;;;;;;4939103;29;20050;-75
2022/06/15 01:37:18;;;;;;;22.05;5.28;;;9.60;77.20;;;;;;4950924;29;20095;-75
2022/06/15 01:40:03;;;;;;;19.00;5.72;;;9.50;77.40;;;;;;4949288;29;20051;-75
2022/06/15 01:43:02;;;;;;;12.32;4.75;;;9.40;77.30;;;;;;4947091;29;20044;-75
2022/06/15 01:45:34;;;;;;;12.43;4.47;;;9.30;77.70;;;;;;4944055;29;20055;-75
2022/06/15 01:48:06;;;;;;;9.68;4.35;;;9.30;77.70;;;;;;4955081;29;20054;-75
2022/06/15 01:50:52;;;;;;;6.55;3.30;;;9.20;77.90;;;;;;4953851;29;20066;-75
2022/06/15 01:53:29;;;;;;;10.52;3.50;;;9.20;78.30;;;;;;4955855;29;20420;-75
2022/06/15 01:56:07;;;;;;;9.35;3.28;;;9.10;78.40;;;;;;4955405;29;20051;-75
2022/06/15 01:58:38;;;;;;;9.25;3.75;;;9.10;78.60;;;;;;4955465;29;20047;-75
2022/06/15 02:01:24;;;;;;;13.05;4.28;;;9.00;78.60;;;;;;4952123;29;20405;-75
2022/06/15 02:04:04;;;;;;;16.45;5.10;;;9.00;78.80;;;;;;4947865;29;20091;-75
2022/06/15 02:07:02;;;;;;;9.60;3.90;;;9.00;79.00;;;;;;4938099;29;20058;-75
2022/06/15 02:09:33;;;;;;;15.63;4.68;;;9.00;79.40;;;;;;4948781;29;20051;-77
2022/06/15 02:12:05;;;;;;;8.88;3.83;;;9.00;79.30;;;;;;4948231;29;20058;-76
2022/06/15 02:14:48;;;;;;;10.23;3.40;;;8.90;79.40;;;;;;4953698;29;20051;-77
2022/06/15 02:17:38;;;;;;;7.68;3.63;;;8.90;79.60;;;;;;4954436;29;20401;-77
2022/06/15 02:20:12;;;;;;;10.98;3.83;;;8.80;79.80;;;;;;4956237;29;20051;-77
2022/06/15 02:22:41;;;;;;;9.05;4.18;;;8.80;79.70;;;;;;4953272;29;20047;-77
2022/06/15 02:25:16;;;;;;;9.88;4.53;;;8.80;79.80;;;;;;4952292;29;20059;-77
2022/06/15 02:27:45;;;;;;;15.27;4.47;;;8.80;80.00;;;;;;4953969;29;20493;-76
2022/06/15 02:30:23;;;;;;;18.60;5.13;;;8.70;80.10;;;;;;4932360;29;20070;-77
2022/06/15 02:33:07;;;;;;;20.63;6.80;;;8.60;80.20;;;;;;4954189;29;20497;-76
2022/06/15 02:35:37;;;;;;;15.65;6.93;;;8.60;80.40;;;;;;4951543;29;20050;-75
2022/06/15 02:38:05;;;;;;;21.95;6.35;;;8.60;80.40;;;;;;4955075;29;20071;-75
2022/06/15 02:40:32;;;;;;;12.82;5.97;;;8.60;80.60;;;;;;4954543;29;20047;-75
2022/06/15 02:43:02;;;;;;;17.67;5.47;;;8.60;80.80;;;;;;4954547;29;20485;-75
2022/06/15 02:45:34;;;;;;;20.70;5.57;;;8.60;80.80;;;;;;4953661;29;20062;-75
2022/06/15 02:48:06;;;;;;;14.38;5.70;;;8.60;81.00;;;;;;4953543;29;20035;-75
2022/06/15 02:50:55;;;;;;;13.00;4.97;;;8.50;81.10;;;;;;4953621;29;20051;-75
2022/06/15 02:53:27;;;;;;;8.02;5.00;;;8.50;81.40;;;;;;4970923;28;20046;-75
2022/06/15 02:55:58;;;;;;;14.48;6.05;;;8.40;81.30;;;;;;4953785;29;20051;-75
2022/06/15 02:58:32;;;;;;;24.95;8.25;;;8.40;81.50;;;;;;4952111;29;20043;-75
2022/06/15 03:01:01;;;;;;;39.35;13.70;;;8.40;81.60;;;;;;4937159;29;20417;-75
2022/06/15 03:03:33;;;;;;;40.60;11.82;;;8.50;81.80;;;;;;4944097;29;20067;-75
2022/06/15 03:06:16;;;;;;;23.13;8.65;;;8.50;81.90;;;;;;4959471;28;20052;-75
2022/06/15 03:08:45;;;;;;;24.95;9.93;;;8.50;82.00;;;;;;4947824;29;20059;-75
2022/06/15 03:11:25;;;;;;;27.42;8.85;;;8.50;82.10;;;;;;4945388;29;20047;-75
2022/06/15 03:13:56;;;;;;;19.73;7.97;;;8.50;82.30;;;;;;4953022;29;20142;-75
2022/06/15 03:16:24;;;;;;;18.33;7.90;;;8.50;82.40;;;;;;4953137;29;20055;-75
2022/06/15 03:18:52;;;;;;;17.73;7.00;;;8.40;82.50;;;;;;4941961;29;20047;-75
2022/06/15 03:21:20;;;;;;;14.32;7.28;;;8.30;82.60;;;;;;4937507;29;20066;-75
2022/06/15 03:23:48;;;;;;;10.63;7.00;;;8.30;82.70;;;;;;4937073;28;20043;-74
2022/06/15 03:26:17;;;;;;;14.32;7.03;;;8.30;82.90;;;;;;4952300;29;20043;-75
2022/06/15 03:28:44;;;;;;;11.57;7.28;;;8.30;83.00;;;;;;4921714;29;20054;-75
2022/06/15 03:31:15;;;;;;;13.88;6.38;;;8.20;83.10;;;;;;4949853;29;20055;-75
2022/06/15 03:33:44;;;;;;;18.50;7.88;;;8.20;83.20;;;;;;4934199;29;20050;-75
2022/06/15 03:36:16;;;;;;;19.70;8.07;;;8.20;83.30;;;;;;4947845;29;20047;-75
2022/06/15 03:38:45;;;;;;;15.75;6.70;;;8.20;83.40;;;;;;4948588;29;20050;-75
2022/06/15 03:41:22;;;;;;;13.20;6.72;;;8.20;83.50;;;;;;4953125;29;20054;-75
2022/06/15 03:43:52;;;;;;;19.33;8.15;;;8.20;83.60;;;;;;4937223;29;20405;-75
2022/06/15 03:46:23;;;;;;;18.48;7.22;;;8.20;83.60;;;;;;4952686;29;20528;-75
2022/06/15 03:48:56;;;;;;;13.45;6.97;;;8.20;83.70;;;;;;4939708;29;20059;-74
2022/06/15 03:51:24;;;;;;;14.75;7.47;;;8.20;83.70;;;;;;4932739;29;20066;-75
2022/06/15 03:53:58;;;;;;;15.20;7.13;;;8.20;83.80;;;;;;4944906;29;20509;-75
2022/06/15 03:56:49;;;;;;;14.65;6.82;;;8.20;83.90;;;;;;4949592;29;20066;-75
2022/06/15 03:59:25;;;;;;;12.27;6.57;;;8.20;84.10;;;;;;4933892;29;20066;-75
2022/06/15 04:01:57;;;;;;;10.77;6.63;;;8.20;84.00;;;;;;4907708;29;20056;-75
2022/06/15 04:04:26;;;;;;;10.40;6.30;;;8.20;84.00;;;;;;4950268;29;20394;-75
2022/06/15 04:06:56;;;;;;;16.08;7.43;;;8.20;84.10;;;;;;4953262;29;20050;-75
2022/06/15 04:09:27;;;;;;;15.10;7.65;;;8.20;84.20;;;;;;4952274;29;20070;-75
2022/06/15 04:12:07;;;;;;;17.85;7.18;;;8.20;84.30;;;;;;4950969;29;20055;-75
2022/06/15 04:14:39;;;;;;;13.70;7.50;;;8.30;84.40;;;;;;4949168;29;20054;-75
2022/06/15 04:17:17;;;;;;;14.27;8.25;;;8.30;84.40;;;;;;4951968;29;20051;-75
2022/06/15 04:23:07;;;;;;;18.13;7.47;;;8.40;84.50;;;;;;4952470;29;20047;-74
2022/06/15 04:25:45;;;;;;;13.55;7.53;;;8.40;84.50;;;;;;4953057;29;20055;-74
2022/06/15 04:28:15;;;;;;;14.05;7.65;;;8.40;84.50;;;;;;4953848;29;20058;-74
2022/06/15 04:30:43;;;;;;;16.27;7.30;;;8.50;84.60;;;;;;4952939;29;20055;-74
2022/06/15 04:33:11;;;;;;;16.40;8.77;;;8.50;84.60;;;;;;4951176;29;20400;-75
2022/06/15 04:35:40;;;;;;;19.67;9.32;;;8.50;84.60;;;;;;4926595;29;20039;-74
2022/06/15 04:38:13;;;;;;;18.00;9.13;;;8.70;84.70;;;;;;4945466;29;20043;-74
2022/06/15 04:40:51;;;;;;;23.27;9.73;;;8.70;84.60;;;;;;4952704;29;20524;-75
2022/06/15 04:43:19;;;;;;;22.25;9.85;;;8.80;84.50;;;;;;4946716;29;20420;-75
2022/06/15 04:45:47;;;;;;;18.77;9.35;;;8.90;84.50;;;;;;4952513;29;20068;-74
2022/06/15 04:48:22;;;;;;;27.10;10.70;;;9.00;84.40;;;;;;4942238;29;20043;-75
2022/06/15 04:50:53;;;;;;;23.55;10.95;;;9.20;84.30;;;;;;4952899;29;20070;-75
2022/06/15 04:53:22;;;;;;;22.90;10.57;;;9.20;84.30;;;;;;4952386;29;20039;-74
2022/06/15 04:55:53;;;;;;;24.55;9.98;;;9.30;84.20;;;;;;4936151;29;20047;-75
2022/06/15 04:58:21;;;;;;;24.33;11.15;;;9.40;84.20;;;;;;4936863;29;20047;-75
2022/06/15 05:00:54;;;;;;;29.83;9.63;;;9.40;84.20;;;;;;4925670;29;20147;-76
2022/06/15 05:03:22;;;;;;;26.83;9.60;;;9.50;84.10;;;;;;4946065;29;20162;-74
2022/06/15 05:05:55;;;;;;;23.08;9.20;;;9.50;84.20;;;;;;4931066;29;20047;-76
2022/06/15 05:08:25;;;;;;;24.08;9.30;;;9.60;84.20;;;;;;4948983;29;20417;-75
2022/06/15 05:10:55;;;;;;;21.17;9.10;;;9.60;84.10;;;;;;4949406;29;20107;-75
2022/06/15 05:13:22;;;;;;;20.88;9.13;;;9.60;84.10;;;;;;4952373;29;20385;-75
2022/06/15 05:15:52;;;;;;;21.45;8.98;;;9.70;84.10;;;;;;4950603;29;20040;-75
2022/06/15 05:18:20;;;;;;;24.00;8.32;;;9.70;84.10;;;;;;4942276;29;20047;-75
2022/06/15 05:20:48;;;;;;;15.88;8.18;;;9.70;84.00;;;;;;4951705;29;20102;-75
2022/06/15 05:23:20;;;;;;;18.27;8.40;;;9.80;84.00;;;;;;4951201;29;20039;-75
2022/06/15 05:26:06;;;;;;;17.70;7.90;;;9.90;83.90;;;;;;4952333;29;20048;-75
2022/06/15 05:28:37;;;;;;;13.80;7.70;;;10.00;83.70;;;;;;4962710;29;20055;-75
2022/06/15 05:31:14;;;;;;;20.23;7.72;;;10.20;83.40;;;;;;4958909;29;20035;-75
2022/06/15 05:33:43;;;;;;;17.10;7.93;;;10.30;83.10;;;;;;4949952;29;20055;-75
2022/06/15 05:36:17;;;;;;;18.45;7.95;;;10.40;82.90;;;;;;4950565;29;20044;-74
2022/06/15 05:38:45;;;;;;;13.25;7.55;;;10.40;82.80;;;;;;4944809;29;20048;-77
2022/06/15 05:41:13;;;;;;;13.40;7.65;;;10.40;82.70;;;;;;4959278;29;20071;-77
2022/06/15 05:43:48;;;;;;;14.10;7.25;;;10.40;82.60;;;;;;4949911;29;20540;-77
2022/06/15 05:46:30;;;;;;;12.80;6.97;;;10.40;82.60;;;;;;4944616;29;20043;-77
2022/06/15 05:49:08;;;;;;;11.65;7.55;;;10.40;82.60;;;;;;4954791;28;20301;-77
2022/06/15 05:51:36;;;;;;;16.90;7.93;;;10.40;82.50;;;;;;4951240;29;20043;-77
2022/06/15 05:54:05;;;;;;;13.43;8.38;;;10.50;82.50;;;;;;4954801;29;20050;-77
2022/06/15 05:56:33;;;;;;;16.40;8.13;;;10.70;82.40;;;;;;4956352;29;20043;-77
2022/06/15 05:59:01;;;;;;;12.88;7.53;;;10.80;82.20;;;;;;4965026;28;20390;-74
2022/06/15 06:01:32;;;;;;;18.60;8.68;;;11.10;82.00;;;;;;4947969;29;20496;-77
2022/06/15 06:04:00;;;;;;;16.15;7.70;;;11.20;81.80;;;;;;4951411;29;20036;-77
2022/06/15 06:06:29;;;;;;;11.27;7.95;;;11.40;81.60;;;;;;4955991;29;20058;-77
2022/06/15 06:08:58;;;;;;;11.80;7.15;;;11.60;81.40;;;;;;4956394;29;20062;-76
2022/06/15 06:11:27;;;;;;;17.33;7.50;;;11.70;81.20;;;;;;4951476;29;20051;-78
2022/06/15 06:13:55;;;;;;;20.20;8.48;;;11.90;80.80;;;;;;4955090;29;20043;-71
2022/06/15 06:16:23;;;;;;;13.93;7.90;;;12.10;80.60;;;;;;4948016;29;20047;-71
2022/06/15 06:18:51;;;;;;;16.42;7.65;;;12.20;80.20;;;;;;4953867;29;20055;-71
2022/06/15 06:21:19;;;;;;;17.00;8.65;;;12.30;79.90;;;;;;4947142;28;20043;-72
2022/06/15 06:23:47;;;;;;;15.48;7.63;;;12.50;79.70;;;;;;4955594;29;20051;-69
2022/06/15 06:26:30;;;;;;;16.02;7.65;;;12.60;79.50;;;;;;4954968;29;20059;-70
2022/06/15 06:28:59;;;;;;;16.58;7.72;;;12.80;79.30;;;;;;4949661;29;20417;-70
2022/06/15 06:31:27;;;;;;;12.55;7.32;;;12.80;79.10;;;;;;4949271;29;20405;-70
2022/06/15 06:33:55;;;;;;;17.33;7.85;;;13.00;78.90;;;;;;4954139;29;20047;-70
2022/06/15 06:36:33;;;;;;;17.10;8.20;;;13.10;78.70;;;;;;4953323;29;20074;-70
2022/06/15 06:39:04;;;;;;;13.02;7.15;;;13.30;78.60;;;;;;4951934;28;20051;-71
2022/06/15 06:41:32;;;;;;;11.48;6.90;;;13.50;78.40;;;;;;4952323;29;20055;-71
2022/06/15 06:44:05;;;;;;;10.77;7.00;;;13.60;78.00;;;;;;4955055;28;20539;-71
2022/06/15 06:46:34;;;;;;;13.48;7.30;;;13.80;77.60;;;;;;4949530;29;20048;-70
2022/06/15 06:49:07;;;;;;;18.30;7.75;;;13.90;77.20;;;;;;4948287;28;20055;-71
2022/06/15 06:51:36;;;;;;;19.77;7.65;;;14.00;76.90;;;;;;4954428;29;20525;-70
2022/06/15 06:54:06;;;;;;;25.20;7.82;;;14.20;76.70;;;;;;4955777;29;20161;-71
2022/06/15 06:56:35;;;;;;;17.55;7.47;;;14.30;76.40;;;;;;4956093;29;20512;-71
2022/06/15 06:59:05;;;;;;;25.98;8.18;;;14.50;76.20;;;;;;4954766;28;20062;-71
2022/06/15 07:01:34;;;;;;;26.27;7.60;;;14.80;75.70;;;;;;4950638;29;20058;-71
2022/06/15 07:04:02;;;;;;;30.70;8.50;;;15.00;75.20;;;;;;4945055;29;20063;-71
2022/06/15 07:06:30;;;;;;;24.23;7.72;;;15.30;74.70;;;;;;4952221;29;20036;-72
2022/06/15 07:08:58;;;;;;;22.20;7.95;;;15.50;74.10;;;;;;4953849;29;20494;-71
2022/06/15 07:11:26;;;;;;;26.55;7.93;;;15.70;73.60;;;;;;4951741;29;20070;-72
2022/06/15 07:13:54;;;;;;;25.73;7.78;;;15.90;73.10;;;;;;4953428;29;20043;-71
2022/06/15 07:16:23;;;;;;;13.85;7.07;;;16.00;72.70;;;;;;4955495;29;20048;-71
2022/06/15 07:18:52;;;;;;;17.98;6.95;;;16.30;72.30;;;;;;4946789;29;20050;-71
2022/06/15 07:21:23;;;;;;;14.45;7.07;;;16.40;71.70;;;;;;4950449;29;20047;-70
2022/06/15 07:23:55;;;;;;;18.42;7.45;;;16.60;71.30;;;;;;4954798;29;20058;-70
2022/06/15 07:26:30;;;;;;;18.15;7.03;;;16.70;70.80;;;;;;4952975;28;20513;-71
2022/06/15 07:28:58;;;;;;;13.40;7.10;;;16.80;70.30;;;;;;4951916;29;20058;-71
2022/06/15 07:31:33;;;;;;;18.65;6.78;;;16.80;70.10;;;;;;4954126;29;20052;-71
2022/06/15 07:34:01;;;;;;;19.33;6.18;;;16.90;69.70;;;;;;4954666;29;20394;-71
2022/06/15 07:36:35;;;;;;;14.48;6.63;;;16.90;69.40;;;;;;4955017;29;20048;-71
2022/06/15 07:39:03;;;;;;;17.45;7.30;;;16.80;69.20;;;;;;4954033;29;20039;-71
2022/06/15 07:41:32;;;;;;;23.48;7.07;;;16.80;69.10;;;;;;4955034;29;20047;-71
2022/06/15 07:44:00;;;;;;;19.70;7.07;;;16.80;69.00;;;;;;4955049;29;20039;-72
2022/06/15 07:46:28;;;;;;;26.15;7.25;;;16.70;68.90;;;;;;4955078;29;20066;-72
2022/06/15 07:51:56;;;;;;;13.85;7.32;;;16.70;69.00;;;;;;4955291;29;20070;-71
2022/06/15 07:54:25;;;;;;;13.60;6.45;;;16.80;68.60;;;;;;4955088;29;20044;-71
2022/06/15 07:56:54;;;;;;;11.80;6.80;;;16.90;68.40;;;;;;4954931;29;20047;-72
2022/06/15 07:59:23;;;;;;;15.15;6.47;;;17.10;68.00;;;;;;4954483;29;20059;-72
2022/06/15 08:01:51;;;;;;;10.25;5.93;;;17.20;67.60;;;;;;4953296;29;20107;-72
2022/06/15 08:04:20;;;;;;;12.65;6.68;;;17.30;67.20;;;;;;4954699;29;20059;-72
2022/06/15 08:06:48;;;;;;;17.30;7.47;;;17.50;66.60;;;;;;4953175;29;20043;-72
2022/06/15 08:09:17;;;;;;;20.58;7.55;;;17.70;66.30;;;;;;4954394;29;20054;-72
2022/06/15 08:14:34;;;;;;;18.52;7.50;;;18.10;65.10;;;;;;4954516;29;20389;-72
2022/06/15 08:17:03;;;;;;;21.50;7.47;;;18.20;64.60;;;;;;4954074;29;20050;-71
2022/06/15 08:19:34;;;;;;;19.27;7.65;;;18.30;64.70;;;;;;4954261;29;20047;-69
2022/06/15 08:22:02;;;;;;;16.30;7.20;;;18.30;64.20;;;;;;4954105;28;20065;-70
2022/06/15 08:24:31;;;;;;;32.20;16.77;;;18.60;63.80;;;;;;4954148;29;20047;-70
2022/06/15 08:26:59;;;;;;;11.30;7.57;;;18.70;63.50;;;;;;4953341;29;20054;-71
2022/06/15 08:29:28;;;;;;;20.42;6.88;;;18.80;63.20;;;;;;4953551;29;20086;-71
2022/06/15 08:31:57;;;;;;;16.92;7.60;;;19.00;63.00;;;;;;4954283;29;20047;-70
2022/06/15 08:34:26;;;;;;;13.63;6.72;;;19.10;62.80;;;;;;4953533;28;20047;-70
2022/06/15 08:36:55;;;;;;;11.35;6.25;;;19.30;62.10;;;;;;4954393;29;20050;-70
2022/06/15 08:39:23;;;;;;;13.32;6.93;;;19.30;61.50;;;;;;4954306;29;20051;-71
2022/06/15 08:42:16;;;;;;;16.10;6.82;;;19.40;61.20;;;;;;4953482;28;20062;-70
2022/06/15 08:45:15;;;;;;;15.68;8.52;;;19.50;61.10;;;;;;4954219;29;20047;-70
2022/06/15 08:47:51;;;;;;;15.93;7.32;;;19.60;60.80;;;;;;4952843;29;20417;-71
2022/06/15 08:50:43;;;;;;;23.98;6.55;;;19.80;60.70;;;;;;4953888;29;20429;-70
2022/06/15 08:53:13;;;;;;;18.00;7.07;;;19.80;60.10;;;;;;4954458;28;20058;-73
2022/06/15 08:55:46;;;;;;;18.48;6.20;;;19.90;60.00;;;;;;4954142;29;20047;-72
2022/06/15 08:58:38;;;;;;;21.38;6.80;;;19.90;59.50;;;;;;4954371;28;20055;-71
2022/06/15 09:01:30;;;;;;;34.75;8.00;;;19.90;59.10;;;;;;4952868;29;20062;-70
2022/06/15 09:04:13;;;;;;;19.70;7.05;;;19.80;59.00;;;;;;4953803;29;20062;-71
2022/06/15 09:06:41;;;;;;;26.75;6.40;;;19.80;59.00;;;;;;4952938;29;20043;-71
2022/06/15 09:09:20;;;;;;;23.25;6.47;;;19.90;59.10;;;;;;4953938;29;20051;-70
2022/06/15 09:15:45;;;;;;;21.27;6.53;;;20.20;58.50;;;;;;4953511;29;20533;-71
2022/06/15 09:18:37;;;;;;;28.33;6.90;;;20.30;58.20;;;;;;4952698;29;20390;-71
2022/06/15 09:21:23;;;;;;;16.88;6.40;;;20.30;58.40;;;;;;4953937;29;20039;-71
2022/06/15 09:24:00;;;;;;;21.50;6.72;;;20.50;58.10;;;;;;4956555;28;20047;-71
2022/06/15 09:26:34;;;;;;;24.08;7.00;;;20.50;58.00;;;;;;4957754;29;20047;-72
2022/06/15 09:29:07;;;;;;;17.15;6.28;;;20.50;57.60;;;;;;4957661;29;20401;-72
2022/06/15 09:32:06;;;;;;;24.52;6.47;;;20.40;57.60;;;;;;4957623;29;20050;-72
2022/06/15 09:34:38;;;;;;;20.20;5.68;;;20.30;57.50;;;;;;4957601;29;20051;-71
2022/06/15 09:37:15;;;;;;;15.40;6.40;;;20.30;57.80;;;;;;4957186;29;20054;-71
2022/06/15 09:39:44;;;;;;;17.00;5.55;;;20.40;57.40;;;;;;4956376;29;20047;-72
2022/06/15 09:42:31;;;;;;;13.18;5.00;;;20.40;57.30;;;;;;4956037;29;20058;-71
2022/06/15 09:45:11;;;;;;;13.38;4.45;;;20.40;57.00;;;;;;4956159;29;20090;-72
2022/06/15 09:47:45;;;;;;;15.20;5.10;;;20.50;56.80;;;;;;4957056;28;20078;-71
2022/06/15 09:50:30;;;;;;;9.75;5.05;;;20.70;57.00;;;;;;4957445;29;20058;-71
2022/06/15 09:53:23;;;;;;;8.65;5.20;;;20.80;56.80;;;;;;4955472;29;20298;-71
2022/06/15 09:55:56;;;;;;;11.98;5.70;;;20.90;56.10;;;;;;4956528;28;20059;-71
2022/06/15 09:58:56;;;;;;;8.38;5.10;;;20.90;56.20;;;;;;4957147;29;20485;-71
2022/06/15 10:01:28;;;;;;;12.40;5.40;;;21.00;56.30;;;;;;4956877;29;20066;-71
2022/06/15 10:03:58;;;;;;;11.25;5.03;;;21.00;55.90;;;;;;4956985;29;20051;-71
2022/06/15 10:06:28;;;;;;;10.18;4.75;;;21.10;55.30;;;;;;4956949;29;20043;-71
2022/06/15 10:08:58;;;;;;;7.68;4.70;;;21.10;55.20;;;;;;4956980;29;20058;-72
2022/06/15 10:11:44;;;;;;;8.65;4.20;;;21.20;55.50;;;;;;4956711;28;20039;-71
2022/06/15 10:14:29;;;;;;;11.13;5.07;;;21.30;54.80;;;;;;4956667;29;20047;-71
2022/06/15 10:17:05;;;;;;;7.57;4.53;;;21.40;53.50;;;;;;4955313;29;20058;-71
2022/06/15 10:19:34;;;;;;;7.38;4.13;;;21.40;53.60;;;;;;4956694;29;20503;-70
2022/06/15 10:22:06;;;;;;;10.75;3.97;;;21.60;53.50;;;;;;4955353;29;20054;-71
2022/06/15 10:24:40;;;;;;;9.43;3.90;;;21.70;52.80;;;;;;4956551;29;20058;-71
2022/06/15 10:27:18;;;;;;;8.02;3.35;;;21.80;52.60;;;;;;4956658;29;20467;-71
2022/06/15 10:30:06;;;;;;;10.45;3.28;;;21.90;52.00;;;;;;4956677;29;20351;-71
2022/06/15 10:32:56;;;;;;;6.10;2.90;;;22.20;50.50;;;;;;4956419;29;20062;-70
2022/06/15 10:35:25;;;;;;;6.75;2.50;;;22.40;50.50;;;;;;4954260;28;20386;-71
2022/06/15 10:38:00;;;;;;;7.97;2.88;;;22.70;49.50;;;;;;4956752;29;20055;-71
2022/06/15 10:40:52;;;;;;;5.15;3.00;;;22.90;48.60;;;;;;4956235;29;20044;-71
2022/06/15 10:43:31;;;;;;;13.93;2.30;;;23.20;47.30;;;;;;4946557;28;20407;-71
2022/06/15 10:46:02;;;;;;;13.75;2.05;;;23.30;46.20;;;;;;4956207;29;20051;-71
2022/06/15 10:48:44;;;;;;;3.97;1.85;;;23.40;45.90;;;;;;4955625;28;20053;-71
2022/06/15 10:51:28;;;;;;;8.15;1.63;;;23.50;44.80;;;;;;4956200;29;20047;-70
2022/06/15 10:54:32;;;;;;;5.47;1.95;;;23.50;43.60;;;;;;4956229;29;20051;-71
2022/06/15 11:03:22;;;;;;;7.32;2.60;;;24.00;43.40;;;;;;4954786;29;20043;-70
2022/06/15 11:05:53;;;;;;;10.95;3.30;;;24.20;43.70;;;;;;4955785;29;20054;-71
2022/06/15 11:08:26;;;;;;;13.80;3.80;;;24.30;43.40;;;;;;4956032;28;20047;-71
2022/06/15 11:11:18;;;;;;;16.45;3.55;;;24.50;42.40;;;;;;4955823;29;20051;-71
2022/06/15 11:13:57;;;;;;;16.70;3.72;;;24.30;42.90;;;;;;4955641;29;20506;-71
2022/06/15 11:19:14;;;;;;;11.55;3.08;;;24.10;43.70;;;;;;4955586;29;20424;-71
2022/06/15 11:22:03;;;;;;;11.80;3.53;;;24.20;43.90;;;;;;4955360;28;20055;-70
2022/06/15 11:24:41;;;;;;;12.70;3.67;;;24.40;43.00;;;;;;4954267;29;20059;-70
2022/06/15 11:27:28;;;;;;;9.02;3.63;;;24.60;42.70;;;;;;4955421;29;20050;-71
2022/06/15 11:30:17;;;;;;;7.00;3.30;;;24.80;42.50;;;;;;4955591;29;20051;-70
2022/06/15 11:33:09;;;;;;;8.32;3.60;;;24.80;42.00;;;;;;4955331;29;20066;-71
2022/06/15 11:36:25;;;;;;;12.73;3.90;;;24.60;42.80;;;;;;4916292;28;20058;-70
2022/06/15 11:39:07;;;;;;;13.27;3.30;;;24.50;42.80;;;;;;4954395;28;20516;-71
2022/06/15 11:41:44;;;;;;;16.15;3.00;;;24.70;42.10;;;;;;4955284;29;20051;-71
2022/06/15 11:44:35;;;;;;;8.55;3.05;;;25.00;42.40;;;;;;4954934;29;20400;-71
2022/06/15 11:47:31;;;;;;;5.25;2.17;;;25.40;40.70;;;;;;4954891;28;20047;-70
2022/06/15 11:50:40;;;;;;;9.15;2.70;;;25.60;39.50;;;;;;4955311;28;20502;-70
2022/06/15 11:53:21;;;;;;;8.00;3.03;;;25.70;39.40;;;;;;4875030;29;20061;-69
2022/06/15 11:55:58;;;;;;;10.00;3.20;;;25.80;39.60;;;;;;4876144;29;20083;-70
2022/06/15 11:59:02;;;;;;;9.00;3.33;;;26.10;39.70;;;;;;4876719;29;20060;-70
2022/06/15 12:01:49;;;;;;;7.50;3.38;;;26.50;38.10;;;;;;4876685;29;20045;-70
2022/06/15 12:04:47;;;;;;;8.35;3.00;;;26.60;38.00;;;;;;4876204;29;20056;-70
2022/06/15 12:07:27;;;;;;;7.40;2.63;;;26.60;37.70;;;;;;4876855;29;20045;-70
2022/06/15 12:09:57;;;;;;;7.85;3.08;;;26.80;38.50;;;;;;4876920;29;20514;-71
2022/06/15 12:12:39;;;;;;;9.48;3.55;;;27.10;37.90;;;;;;4876540;29;20049;-70
2022/06/15 12:15:26;;;;;;;7.05;2.88;;;27.00;37.90;;;;;;4876806;29;20049;-71
2022/06/15 12:18:34;;;;;;;14.60;3.33;;;27.10;37.90;;;;;;4876681;29;20053;-70
2022/06/15 12:21:25;;;;;;;21.63;4.20;;;27.20;37.20;;;;;;4842703;29;20064;-71
2022/06/15 12:24:07;;;;;;;21.60;3.28;;;27.20;36.70;;;;;;4876589;29;20049;-71
2022/06/15 12:27:01;;;;;;;10.02;3.38;;;27.10;37.30;;;;;;4876474;29;20459;-70
2022/06/15 12:29:51;;;;;;;7.82;3.33;;;27.10;37.10;;;;;;4888950;29;20493;-71
2022/06/15 12:32:42;;;;;;;8.20;2.78;;;26.90;36.90;;;;;;4953705;28;20055;-71
2022/06/15 12:35:10;;;;;;;4.75;2.50;;;26.80;37.00;;;;;;4954287;29;20043;-70
2022/06/15 12:38:11;;;;;;;4.15;2.30;;;26.80;36.50;;;;;;4953870;29;20402;-71
2022/06/15 12:41:06;;;;;;;10.38;2.58;;;26.90;36.60;;;;;;4954051;28;20054;-71
2022/06/15 12:43:43;;;;;;;6.05;2.38;;;27.10;36.70;;;;;;4953771;28;20404;-70
2022/06/15 12:46:14;;;;;;;5.43;2.10;;;27.10;36.50;;;;;;4954579;28;20054;-71
2022/06/15 12:49:04;;;;;;;6.90;2.45;;;27.00;36.20;;;;;;4954221;29;20047;-70
2022/06/15 12:51:59;;;;;;;6.07;2.30;;;26.90;36.20;;;;;;4954209;29;20055;-70
2022/06/15 12:54:39;;;;;;;9.30;2.83;;;27.00;37.10;;;;;;4954025;29;20051;-71
2022/06/15 12:57:22;;;;;;;11.20;2.40;;;26.90;37.10;;;;;;4951459;28;20063;-73
2022/06/15 13:00:17;;;;;;;5.32;2.67;;;26.60;37.60;;;;;;4947253;29;20401;-70
2022/06/15 13:02:51;;;;;;;6.00;2.63;;;26.20;37.80;;;;;;4934717;29;20058;-70
2022/06/15 13:05:25;;;;;;;9.80;2.67;;;25.90;37.70;;;;;;4950521;29;20050;-74
2022/06/15 13:08:21;;;;;;;5.40;2.42;;;25.60;38.30;;;;;;4940882;29;20054;-74
2022/06/15 13:10:59;;;;;;;7.07;2.85;;;25.30;39.00;;;;;;4923426;29;20062;-74
2022/06/15 13:13:37;;;;;;;11.70;3.47;;;25.10;39.90;;;;;;4943907;29;20081;-76
2022/06/15 13:16:42;;;;;;;7.70;2.97;;;24.90;40.10;;;;;;4950642;28;20039;-74
2022/06/15 13:19:33;;;;;;;5.30;2.92;;;24.50;41.60;;;;;;4937177;29;20051;-74
2022/06/15 13:22:12;;;;;;;12.63;3.55;;;24.20;41.60;;;;;;4944875;29;20044;-74
2022/06/15 13:24:54;;;;;;;105.35;7.25;;;24.00;42.00;;;;;;4945333;29;20051;-74
2022/06/15 13:27:29;;;;;;;8.40;2.80;;;23.80;42.80;;;;;;4943685;29;20055;-74
2022/06/15 13:30:30;;;;;;;16.77;3.67;;;23.80;43.10;;;;;;4943522;29;20043;-73
2022/06/15 13:33:09;;;;;;;54.97;4.72;;;23.60;43.20;;;;;;4942519;29;20540;-74
2022/06/15 13:35:42;;;;;;;19.00;3.40;;;23.40;43.60;;;;;;4950805;29;20047;-74
2022/06/15 13:38:23;;;;;;;54.70;5.65;;;23.30;44.10;;;;;;4951964;29;20070;-74
2022/06/15 13:40:54;;;;;;;50.80;5.97;;;23.20;44.50;;;;;;4940212;29;20494;-74
2022/06/15 13:43:27;;;;;;;18.20;3.70;;;23.10;44.80;;;;;;4941716;29;20067;-74
2022/06/15 13:46:02;;;;;;;37.42;4.20;;;23.10;45.10;;;;;;4940075;29;20055;-76
2022/06/15 13:48:40;;;;;;;73.70;6.65;;;22.90;45.50;;;;;;4944472;29;20508;-74
2022/06/15 13:51:14;;;;;;;9.05;3.13;;;22.90;45.90;;;;;;4945814;29;20059;-74